sensor_id;sensor_type;location;lat;lon;timestamp;P1;durP1;ratioP1;P2;durP2;ratioP2
5945;SDS011;2998;48.206;16.394;2023-04-25T00:00:27;3.23;;;2.97;;
5945;SDS011;2998;48.206;16.394;2023-04-25T00:07:17;3.47;;;3.20;;
5945;SDS011;2998;48.206;16.394;2023-04-25T00:09:46;5.13;;;4.53;;
5945;SDS011;2998;48.206;16.394;2023-04-25T00:16:28;3.40;;;3.20;;
5945;SDS011;2998;48.206;16.394;2023-04-25T00:19:01;4.10;;;3.70;;
5945;SDS011;2998;48.206;16.394;2023-04-25T00:25:57;8.73;;;4.20;;
5945;SDS011;2998;48.206;16.394;2023-04-25T00:32:44;3.77;;;3.53;;
5945;SDS011;2998;48.206;16.394;2023-04-25T00:35:17;4.10;;;3.90;;
5945;SDS011;2998;48.206;16.394;2023-04-25T00:42:07;4.03;;;3.07;;
5945;SDS011;2998;48.206;16.394;2023-04-25T00:44:36;3.63;;;3.33;;
5945;SDS011;2998;48.206;16.394;2023-04-25T00:51:19;3.17;;;3.07;;
5945;SDS011;2998;48.206;16.394;2023-04-25T00:53:49;3.43;;;3.20;;
5945;SDS011;2998;48.206;16.394;2023-04-25T00:56:20;3.70;;;2.50;;
5945;SDS011;2998;48.206;16.394;2023-04-25T00:58:51;3.10;;;2.80;;
5945;SDS011;2998;48.206;16.394;2023-04-25T01:01:23;2.90;;;2.70;;
5945;SDS011;2998;48.206;16.394;2023-04-25T01:03:53;4.43;;;3.00;;
5945;SDS011;2998;48.206;16.394;2023-04-25T01:06:22;3.00;;;2.80;;
5945;SDS011;2998;48.206;16.394;2023-04-25T01:08:51;2.83;;;2.73;;
5945;SDS011;2998;48.206;16.394;2023-04-25T01:11:21;3.30;;;3.20;;
5945;SDS011;2998;48.206;16.394;2023-04-25T01:13:52;3.03;;;2.80;;
5945;SDS011;2998;48.206;16.394;2023-04-25T01:16:21;2.73;;;2.63;;
5945;SDS011;2998;48.206;16.394;2023-04-25T01:18:52;2.67;;;2.57;;
5945;SDS011;2998;48.206;16.394;2023-04-25T01:21:23;3.30;;;3.10;;
5945;SDS011;2998;48.206;16.394;2023-04-25T01:23:54;2.90;;;2.80;;
5945;SDS011;2998;48.206;16.394;2023-04-25T01:26:23;3.37;;;3.17;;
5945;SDS011;2998;48.206;16.394;2023-04-25T01:28:52;3.00;;;2.80;;
5945;SDS011;2998;48.206;16.394;2023-04-25T01:31:22;3.07;;;2.57;;
5945;SDS011;2998;48.206;16.394;2023-04-25T01:33:52;3.30;;;2.90;;
5945;SDS011;2998;48.206;16.394;2023-04-25T01:36:22;3.57;;;3.30;;
5945;SDS011;2998;48.206;16.394;2023-04-25T01:38:52;3.17;;;2.97;;
5945;SDS011;2998;48.206;16.394;2023-04-25T01:41:22;2.60;;;2.50;;
5945;SDS011;2998;48.206;16.394;2023-04-25T01:43:52;3.57;;;3.37;;
5945;SDS011;2998;48.206;16.394;2023-04-25T01:46:21;4.17;;;3.13;;
5945;SDS011;2998;48.206;16.394;2023-04-25T01:53:10;8.20;;;3.10;;
5945;SDS011;2998;48.206;16.394;2023-04-25T01:55:41;2.63;;;2.53;;
5945;SDS011;2998;48.206;16.394;2023-04-25T02:02:29;4.03;;;3.80;;
5945;SDS011;2998;48.206;16.394;2023-04-25T02:04:59;3.97;;;3.67;;
5945;SDS011;2998;48.206;16.394;2023-04-25T02:11:50;3.67;;;3.43;;
5945;SDS011;2998;48.206;16.394;2023-04-25T02:18:32;4.33;;;4.03;;
5945;SDS011;2998;48.206;16.394;2023-04-25T02:21:04;8.23;;;5.07;;
5945;SDS011;2998;48.206;16.394;2023-04-25T02:27:47;6.57;;;4.37;;
5945;SDS011;2998;48.206;16.394;2023-04-25T02:30:17;4.90;;;4.60;;
5945;SDS011;2998;48.206;16.394;2023-04-25T02:37:18;4.90;;;4.60;;
5945;SDS011;2998;48.206;16.394;2023-04-25T02:44:07;4.57;;;4.27;;
5945;SDS011;2998;48.206;16.394;2023-04-25T02:46:37;6.73;;;4.50;;
5945;SDS011;2998;48.206;16.394;2023-04-25T02:53:32;7.07;;;4.30;;
5945;SDS011;2998;48.206;16.394;2023-04-25T02:56:01;4.07;;;3.70;;
5945;SDS011;2998;48.206;16.394;2023-04-25T03:02:44;4.13;;;3.73;;
5945;SDS011;2998;48.206;16.394;2023-04-25T03:05:13;4.60;;;4.30;;
5945;SDS011;2998;48.206;16.394;2023-04-25T03:07:43;5.10;;;4.70;;
5945;SDS011;2998;48.206;16.394;2023-04-25T03:10:12;4.50;;;4.17;;
5945;SDS011;2998;48.206;16.394;2023-04-25T03:12:42;4.00;;;3.70;;
5945;SDS011;2998;48.206;16.394;2023-04-25T03:15:11;6.80;;;6.20;;
5945;SDS011;2998;48.206;16.394;2023-04-25T03:17:40;8.93;;;6.57;;
5945;SDS011;2998;48.206;16.394;2023-04-25T03:20:11;7.83;;;7.20;;
5945;SDS011;2998;48.206;16.394;2023-04-25T03:22:41;5.10;;;4.63;;
5945;SDS011;2998;48.206;16.394;2023-04-25T03:29:29;7.63;;;6.93;;
5945;SDS011;2998;48.206;16.394;2023-04-25T03:31:58;7.00;;;6.10;;
5945;SDS011;2998;48.206;16.394;2023-04-25T03:43:30;6.30;;;5.70;;
5945;SDS011;2998;48.206;16.394;2023-04-25T03:45:59;5.87;;;5.43;;
5945;SDS011;2998;48.206;16.394;2023-04-25T03:48:29;5.63;;;5.13;;
5945;SDS011;2998;48.206;16.394;2023-04-25T03:50:58;6.27;;;5.87;;
5945;SDS011;2998;48.206;16.394;2023-04-25T03:53:27;7.57;;;6.97;;
5945;SDS011;2998;48.206;16.394;2023-04-25T03:55:56;6.47;;;5.97;;
5945;SDS011;2998;48.206;16.394;2023-04-25T03:58:26;11.10;;;8.17;;
5945;SDS011;2998;48.206;16.394;2023-04-25T04:00:59;10.67;;;8.60;;
5945;SDS011;2998;48.206;16.394;2023-04-25T04:03:32;8.07;;;7.37;;
5945;SDS011;2998;48.206;16.394;2023-04-25T04:06:01;7.33;;;6.73;;
5945;SDS011;2998;48.206;16.394;2023-04-25T04:08:31;7.67;;;7.07;;
5945;SDS011;2998;48.206;16.394;2023-04-25T04:11:00;9.77;;;8.67;;
5945;SDS011;2998;48.206;16.394;2023-04-25T04:13:30;14.60;;;11.67;;
5945;SDS011;2998;48.206;16.394;2023-04-25T04:16:00;46.10;;;33.67;;
5945;SDS011;2998;48.206;16.394;2023-04-25T04:18:30;21.40;;;15.73;;
5945;SDS011;2998;48.206;16.394;2023-04-25T04:21:00;9.43;;;8.53;;
5945;SDS011;2998;48.206;16.394;2023-04-25T04:23:29;10.13;;;9.10;;
5945;SDS011;2998;48.206;16.394;2023-04-25T04:25:58;58.10;;;30.77;;
5945;SDS011;2998;48.206;16.394;2023-04-25T04:28:28;16.73;;;12.27;;
5945;SDS011;2998;48.206;16.394;2023-04-25T04:30:59;8.93;;;8.00;;
5945;SDS011;2998;48.206;16.394;2023-04-25T04:33:29;13.20;;;8.50;;
5945;SDS011;2998;48.206;16.394;2023-04-25T04:35:59;10.80;;;8.53;;
5945;SDS011;2998;48.206;16.394;2023-04-25T04:38:29;7.73;;;7.03;;
5945;SDS011;2998;48.206;16.394;2023-04-25T04:40:59;7.77;;;7.07;;
5945;SDS011;2998;48.206;16.394;2023-04-25T04:43:28;8.83;;;7.00;;
5945;SDS011;2998;48.206;16.394;2023-04-25T04:46:01;7.77;;;6.97;;
5945;SDS011;2998;48.206;16.394;2023-04-25T04:48:31;6.00;;;5.57;;
5945;SDS011;2998;48.206;16.394;2023-04-25T04:55:22;6.30;;;5.20;;
5945;SDS011;2998;48.206;16.394;2023-04-25T04:57:51;6.73;;;6.23;;
5945;SDS011;2998;48.206;16.394;2023-04-25T05:04:39;6.70;;;6.20;;
5945;SDS011;2998;48.206;16.394;2023-04-25T05:07:09;7.93;;;7.20;;
5945;SDS011;2998;48.206;16.394;2023-04-25T05:13:57;5.27;;;4.90;;
5945;SDS011;2998;48.206;16.394;2023-04-25T05:20:40;9.13;;;6.40;;
5945;SDS011;2998;48.206;16.394;2023-04-25T05:23:10;4.40;;;4.20;;
5945;SDS011;2998;48.206;16.394;2023-04-25T05:29:57;12.40;;;6.90;;
5945;SDS011;2998;48.206;16.394;2023-04-25T05:32:26;6.40;;;5.87;;
5945;SDS011;2998;48.206;16.394;2023-04-25T05:39:16;4.73;;;4.33;;
5945;SDS011;2998;48.206;16.394;2023-04-25T05:46:03;4.40;;;4.10;;
5945;SDS011;2998;48.206;16.394;2023-04-25T05:48:33;4.20;;;3.93;;
5945;SDS011;2998;48.206;16.394;2023-04-25T05:55:23;3.87;;;3.67;;
5945;SDS011;2998;48.206;16.394;2023-04-25T05:57:53;3.90;;;3.70;;
5945;SDS011;2998;48.206;16.394;2023-04-25T06:04:35;4.87;;;4.43;;
5945;SDS011;2998;48.206;16.394;2023-04-25T06:11:25;4.33;;;4.00;;
5945;SDS011;2998;48.206;16.394;2023-04-25T06:13:54;4.40;;;4.00;;
5945;SDS011;2998;48.206;16.394;2023-04-25T06:20:41;4.67;;;4.30;;
5945;SDS011;2998;48.206;16.394;2023-04-25T06:23:11;4.20;;;3.97;;
5945;SDS011;2998;48.206;16.394;2023-04-25T06:30:00;3.97;;;3.67;;
5945;SDS011;2998;48.206;16.394;2023-04-25T06:32:31;3.90;;;3.57;;
5945;SDS011;2998;48.206;16.394;2023-04-25T06:35:01;4.77;;;4.40;;
5945;SDS011;2998;48.206;16.394;2023-04-25T06:46:34;5.00;;;4.70;;
5945;SDS011;2998;48.206;16.394;2023-04-25T06:49:04;3.93;;;3.67;;
5945;SDS011;2998;48.206;16.394;2023-04-25T06:55:46;3.47;;;3.27;;
5945;SDS011;2998;48.206;16.394;2023-04-25T06:58:15;3.87;;;3.67;;
5945;SDS011;2998;48.206;16.394;2023-04-25T07:00:44;4.10;;;3.70;;
5945;SDS011;2998;48.206;16.394;2023-04-25T07:03:14;4.87;;;4.27;;
5945;SDS011;2998;48.206;16.394;2023-04-25T07:05:44;3.50;;;3.20;;
5945;SDS011;2998;48.206;16.394;2023-04-25T07:08:14;4.50;;;4.20;;
5945;SDS011;2998;48.206;16.394;2023-04-25T07:10:44;3.70;;;3.50;;
5945;SDS011;2998;48.206;16.394;2023-04-25T07:13:15;3.80;;;3.50;;
5945;SDS011;2998;48.206;16.394;2023-04-25T07:15:45;4.10;;;3.63;;
5945;SDS011;2998;48.206;16.394;2023-04-25T07:18:16;3.50;;;2.93;;
5945;SDS011;2998;48.206;16.394;2023-04-25T07:20:46;3.43;;;3.23;;
5945;SDS011;2998;48.206;16.394;2023-04-25T07:23:15;3.13;;;2.83;;
5945;SDS011;2998;48.206;16.394;2023-04-25T07:25:44;3.80;;;3.33;;
5945;SDS011;2998;48.206;16.394;2023-04-25T07:28:14;5.03;;;3.10;;
5945;SDS011;2998;48.206;16.394;2023-04-25T07:30:45;3.40;;;3.20;;
5945;SDS011;2998;48.206;16.394;2023-04-25T07:37:35;3.73;;;2.70;;
5945;SDS011;2998;48.206;16.394;2023-04-25T07:40:05;2.90;;;2.80;;
5945;SDS011;2998;48.206;16.394;2023-04-25T07:51:05;8.10;;;5.50;;
5945;SDS011;2998;48.206;16.394;2023-04-25T07:53:36;2.43;;;2.33;;
5945;SDS011;2998;48.206;16.394;2023-04-25T07:56:06;4.50;;;2.17;;
5945;SDS011;2998;48.206;16.394;2023-04-25T08:02:54;2.47;;;2.27;;
5945;SDS011;2998;48.206;16.394;2023-04-25T08:05:23;2.30;;;2.20;;
5945;SDS011;2998;48.206;16.394;2023-04-25T08:12:18;2.10;;;2.00;;
5945;SDS011;2998;48.206;16.394;2023-04-25T08:14:49;3.77;;;2.40;;
5945;SDS011;2998;48.206;16.394;2023-04-25T08:21:31;2.00;;;1.90;;
5945;SDS011;2998;48.206;16.394;2023-04-25T08:24:00;2.07;;;1.97;;
5945;SDS011;2998;48.206;16.394;2023-04-25T08:26:29;1.87;;;1.77;;
5945;SDS011;2998;48.206;16.394;2023-04-25T08:29:00;3.40;;;1.70;;
5945;SDS011;2998;48.206;16.394;2023-04-25T08:31:29;1.90;;;1.80;;
5945;SDS011;2998;48.206;16.394;2023-04-25T08:33:59;2.03;;;1.87;;
5945;SDS011;2998;48.206;16.394;2023-04-25T08:36:29;1.80;;;1.70;;
5945;SDS011;2998;48.206;16.394;2023-04-25T08:39:05;2.33;;;2.13;;
5945;SDS011;2998;48.206;16.394;2023-04-25T08:41:36;2.00;;;1.90;;
5945;SDS011;2998;48.206;16.394;2023-04-25T08:44:07;1.87;;;1.77;;
5945;SDS011;2998;48.206;16.394;2023-04-25T08:46:39;2.27;;;1.87;;
5945;SDS011;2998;48.206;16.394;2023-04-25T08:49:09;2.40;;;2.20;;
5945;SDS011;2998;48.206;16.394;2023-04-25T08:51:40;1.80;;;1.70;;
5945;SDS011;2998;48.206;16.394;2023-04-25T08:54:14;1.93;;;1.83;;
5945;SDS011;2998;48.206;16.394;2023-04-25T09:01:15;2.00;;;1.50;;
5945;SDS011;2998;48.206;16.394;2023-04-25T09:08:11;1.90;;;1.80;;
5945;SDS011;2998;48.206;16.394;2023-04-25T09:10:40;2.30;;;1.90;;
5945;SDS011;2998;48.206;16.394;2023-04-25T09:17:23;1.70;;;1.60;;
5945;SDS011;2998;48.206;16.394;2023-04-25T09:19:53;1.93;;;1.60;;
5945;SDS011;2998;48.206;16.394;2023-04-25T09:26:40;2.70;;;1.67;;
5945;SDS011;2998;48.206;16.394;2023-04-25T09:33:31;1.80;;;1.70;;
5945;SDS011;2998;48.206;16.394;2023-04-25T09:36:02;1.80;;;1.70;;
5945;SDS011;2998;48.206;16.394;2023-04-25T09:42:59;2.10;;;2.00;;
5945;SDS011;2998;48.206;16.394;2023-04-25T09:45:29;3.00;;;2.10;;
5945;SDS011;2998;48.206;16.394;2023-04-25T09:52:17;2.70;;;2.50;;
5945;SDS011;2998;48.206;16.394;2023-04-25T09:54:53;4.17;;;2.13;;
5945;SDS011;2998;48.206;16.394;2023-04-25T09:57:22;2.00;;;1.90;;
5945;SDS011;2998;48.206;16.394;2023-04-25T09:59:53;1.73;;;1.63;;
5945;SDS011;2998;48.206;16.394;2023-04-25T10:02:23;1.70;;;1.60;;
5945;SDS011;2998;48.206;16.394;2023-04-25T10:04:55;3.80;;;1.47;;
5945;SDS011;2998;48.206;16.394;2023-04-25T10:07:28;1.30;;;1.20;;
5945;SDS011;2998;48.206;16.394;2023-04-25T10:14:18;1.93;;;1.83;;
5945;SDS011;2998;48.206;16.394;2023-04-25T10:16:48;2.20;;;2.00;;
5945;SDS011;2998;48.206;16.394;2023-04-25T10:23:40;1.87;;;1.50;;
5945;SDS011;2998;48.206;16.394;2023-04-25T10:26:09;1.60;;;1.50;;
5945;SDS011;2998;48.206;16.394;2023-04-25T10:33:12;1.60;;;1.23;;
5945;SDS011;2998;48.206;16.394;2023-04-25T10:35:46;2.03;;;1.40;;
5945;SDS011;2998;48.206;16.394;2023-04-25T10:42:28;1.67;;;1.13;;
5945;SDS011;2998;48.206;16.394;2023-04-25T10:49:30;2.20;;;1.77;;
5945;SDS011;2998;48.206;16.394;2023-04-25T10:52:16;1.80;;;1.70;;
5945;SDS011;2998;48.206;16.394;2023-04-25T10:59:07;0.87;;;0.70;;
5945;SDS011;2998;48.206;16.394;2023-04-25T11:01:39;1.20;;;0.70;;
5945;SDS011;2998;48.206;16.394;2023-04-25T11:11:06;1.40;;;1.30;;
5945;SDS011;2998;48.206;16.394;2023-04-25T11:13:37;1.23;;;1.13;;
5945;SDS011;2998;48.206;16.394;2023-04-25T11:16:28;0.90;;;0.90;;
5945;SDS011;2998;48.206;16.394;2023-04-25T11:23:16;1.70;;;1.10;;
5945;SDS011;2998;48.206;16.394;2023-04-25T11:25:45;1.13;;;1.10;;
5945;SDS011;2998;48.206;16.394;2023-04-25T11:28:20;2.20;;;1.10;;
5945;SDS011;2998;48.206;16.394;2023-04-25T11:30:52;1.50;;;1.40;;
5945;SDS011;2998;48.206;16.394;2023-04-25T11:33:25;1.43;;;1.30;;
5945;SDS011;2998;48.206;16.394;2023-04-25T11:35:56;2.03;;;1.93;;
5945;SDS011;2998;48.206;16.394;2023-04-25T11:38:25;1.53;;;1.43;;
5945;SDS011;2998;48.206;16.394;2023-04-25T11:49:57;2.80;;;1.37;;
5945;SDS011;2998;48.206;16.394;2023-04-25T11:52:35;1.60;;;1.13;;
5945;SDS011;2998;48.206;16.394;2023-04-25T11:59:24;1.63;;;1.13;;
5945;SDS011;2998;48.206;16.394;2023-04-25T12:01:54;2.60;;;1.30;;
5945;SDS011;2998;48.206;16.394;2023-04-25T12:11:39;1.67;;;1.57;;
5945;SDS011;2998;48.206;16.394;2023-04-25T12:14:11;1.57;;;1.17;;
5945;SDS011;2998;48.206;16.394;2023-04-25T12:16:41;0.93;;;0.93;;
5945;SDS011;2998;48.206;16.394;2023-04-25T12:19:13;4.10;;;1.50;;
5945;SDS011;2998;48.206;16.394;2023-04-25T12:21:43;1.63;;;1.53;;
5945;SDS011;2998;48.206;16.394;2023-04-25T12:24:25;1.83;;;1.50;;
5945;SDS011;2998;48.206;16.394;2023-04-25T12:26:58;1.83;;;1.60;;
5945;SDS011;2998;48.206;16.394;2023-04-25T12:29:30;1.17;;;1.10;;
5945;SDS011;2998;48.206;16.394;2023-04-25T12:32:14;1.27;;;1.17;;
5945;SDS011;2998;48.206;16.394;2023-04-25T12:39:02;1.93;;;1.10;;
5945;SDS011;2998;48.206;16.394;2023-04-25T12:50:04;5.73;;;1.80;;
5945;SDS011;2998;48.206;16.394;2023-04-25T12:52:35;1.70;;;1.60;;
5945;SDS011;2998;48.206;16.394;2023-04-25T12:55:05;2.10;;;1.97;;
5945;SDS011;2998;48.206;16.394;2023-04-25T12:59:12;3.50;;;1.80;;
5945;SDS011;2998;48.206;16.394;2023-04-25T13:06:02;1.57;;;1.47;;
5945;SDS011;2998;48.206;16.394;2023-04-25T13:08:32;3.57;;;2.60;;
5945;SDS011;2998;48.206;16.394;2023-04-25T13:15:20;1.97;;;1.40;;
5945;SDS011;2998;48.206;16.394;2023-04-25T13:17:50;5.23;;;2.40;;
5945;SDS011;2998;48.206;16.394;2023-04-25T13:20:20;1.83;;;1.73;;
5945;SDS011;2998;48.206;16.394;2023-04-25T13:23:53;1.90;;;1.80;;
5945;SDS011;2998;48.206;16.394;2023-04-25T13:30:40;0.70;;;0.70;;
5945;SDS011;2998;48.206;16.394;2023-04-25T13:33:11;0.80;;;0.80;;
5945;SDS011;2998;48.206;16.394;2023-04-25T13:40:00;0.87;;;0.87;;
5945;SDS011;2998;48.206;16.394;2023-04-25T13:42:31;1.00;;;1.00;;
5945;SDS011;2998;48.206;16.394;2023-04-25T13:45:00;1.20;;;1.03;;
5945;SDS011;2998;48.206;16.394;2023-04-25T13:51:49;1.50;;;1.40;;
5945;SDS011;2998;48.206;16.394;2023-04-25T13:54:19;1.10;;;0.93;;
5945;SDS011;2998;48.206;16.394;2023-04-25T14:01:07;1.07;;;0.97;;
5945;SDS011;2998;48.206;16.394;2023-04-25T14:03:36;1.17;;;1.07;;
5945;SDS011;2998;48.206;16.394;2023-04-25T14:10:25;1.33;;;1.30;;
5945;SDS011;2998;48.206;16.394;2023-04-25T14:12:55;1.77;;;1.67;;
5945;SDS011;2998;48.206;16.394;2023-04-25T14:15:25;3.43;;;3.10;;
5945;SDS011;2998;48.206;16.394;2023-04-25T14:17:56;2.93;;;2.53;;
5945;SDS011;2998;48.206;16.394;2023-04-25T14:20:25;4.60;;;3.20;;
5945;SDS011;2998;48.206;16.394;2023-04-25T14:22:54;2.83;;;2.73;;
5945;SDS011;2998;48.206;16.394;2023-04-25T14:25:25;4.90;;;4.30;;
5945;SDS011;2998;48.206;16.394;2023-04-25T14:27:55;3.43;;;3.13;;
5945;SDS011;2998;48.206;16.394;2023-04-25T14:30:24;3.13;;;2.77;;
5945;SDS011;2998;48.206;16.394;2023-04-25T14:32:53;2.50;;;2.40;;
5945;SDS011;2998;48.206;16.394;2023-04-25T14:35:24;5.10;;;3.13;;
5945;SDS011;2998;48.206;16.394;2023-04-25T14:37:53;4.77;;;3.17;;
5945;SDS011;2998;48.206;16.394;2023-04-25T14:40:23;3.17;;;3.00;;
5945;SDS011;2998;48.206;16.394;2023-04-25T14:42:54;1.50;;;1.40;;
5945;SDS011;2998;48.206;16.394;2023-04-25T14:45:23;2.27;;;2.17;;
5945;SDS011;2998;48.206;16.394;2023-04-25T14:52:13;2.30;;;1.43;;
5945;SDS011;2998;48.206;16.394;2023-04-25T14:54:42;2.40;;;1.53;;
5945;SDS011;2998;48.206;16.394;2023-04-25T15:01:30;19.70;;;9.43;;
5945;SDS011;2998;48.206;16.394;2023-04-25T15:04:00;10.80;;;4.93;;
5945;SDS011;2998;48.206;16.394;2023-04-25T15:10:51;1.70;;;1.60;;
5945;SDS011;2998;48.206;16.394;2023-04-25T15:13:20;1.83;;;1.73;;
5945;SDS011;2998;48.206;16.394;2023-04-25T15:15:50;1.97;;;1.87;;
5945;SDS011;2998;48.206;16.394;2023-04-25T15:18:21;2.20;;;2.10;;
5945;SDS011;2998;48.206;16.394;2023-04-25T15:20:51;1.80;;;1.70;;
5945;SDS011;2998;48.206;16.394;2023-04-25T15:23:21;2.00;;;1.90;;
5945;SDS011;2998;48.206;16.394;2023-04-25T15:25:54;4.80;;;1.80;;
5945;SDS011;2998;48.206;16.394;2023-04-25T15:28:23;1.37;;;1.27;;
5945;SDS011;2998;48.206;16.394;2023-04-25T15:30:53;1.20;;;1.20;;
5945;SDS011;2998;48.206;16.394;2023-04-25T15:37:41;2.20;;;2.00;;
5945;SDS011;2998;48.206;16.394;2023-04-25T15:40:11;2.80;;;2.70;;
5945;SDS011;2998;48.206;16.394;2023-04-25T15:51:39;3.03;;;2.80;;
5945;SDS011;2998;48.206;16.394;2023-04-25T15:54:08;3.00;;;2.80;;
5945;SDS011;2998;48.206;16.394;2023-04-25T15:56:37;2.20;;;2.10;;
5945;SDS011;2998;48.206;16.394;2023-04-25T15:59:06;1.57;;;1.47;;
5945;SDS011;2998;48.206;16.394;2023-04-25T16:01:35;2.10;;;2.00;;
5945;SDS011;2998;48.206;16.394;2023-04-25T16:04:06;1.40;;;1.30;;
5945;SDS011;2998;48.206;16.394;2023-04-25T16:06:36;1.27;;;1.27;;
5945;SDS011;2998;48.206;16.394;2023-04-25T16:09:10;1.50;;;1.40;;
5945;SDS011;2998;48.206;16.394;2023-04-25T16:11:40;1.43;;;1.33;;
5945;SDS011;2998;48.206;16.394;2023-04-25T16:14:10;4.97;;;3.50;;
5945;SDS011;2998;48.206;16.394;2023-04-25T16:16:40;3.33;;;3.13;;
5945;SDS011;2998;48.206;16.394;2023-04-25T16:19:10;4.00;;;2.30;;
5945;SDS011;2998;48.206;16.394;2023-04-25T16:21:40;3.37;;;2.57;;
5945;SDS011;2998;48.206;16.394;2023-04-25T16:24:11;2.70;;;2.50;;
5945;SDS011;2998;48.206;16.394;2023-04-25T16:26:40;1.70;;;1.60;;
5945;SDS011;2998;48.206;16.394;2023-04-25T16:29:10;2.20;;;2.10;;
5945;SDS011;2998;48.206;16.394;2023-04-25T16:31:40;2.00;;;1.90;;
5945;SDS011;2998;48.206;16.394;2023-04-25T16:34:10;2.13;;;2.03;;
5945;SDS011;2998;48.206;16.394;2023-04-25T16:36:39;1.83;;;1.73;;
5945;SDS011;2998;48.206;16.394;2023-04-25T16:39:08;2.00;;;1.90;;
5945;SDS011;2998;48.206;16.394;2023-04-25T16:41:39;1.53;;;1.43;;
5945;SDS011;2998;48.206;16.394;2023-04-25T16:53:11;1.80;;;1.70;;
5945;SDS011;2998;48.206;16.394;2023-04-25T16:55:42;2.43;;;2.33;;
5945;SDS011;2998;48.206;16.394;2023-04-25T17:02:36;2.90;;;1.67;;
5945;SDS011;2998;48.206;16.394;2023-04-25T17:05:06;2.63;;;2.50;;
5945;SDS011;2998;48.206;16.394;2023-04-25T17:11:56;2.43;;;1.70;;
5945;SDS011;2998;48.206;16.394;2023-04-25T17:18:32;1.90;;;1.80;;
5945;SDS011;2998;48.206;16.394;2023-04-25T17:21:02;1.00;;;1.00;;
5945;SDS011;2998;48.206;16.394;2023-04-25T17:27:51;5.23;;;2.13;;
5945;SDS011;2998;48.206;16.394;2023-04-25T17:30:21;1.20;;;1.10;;
5945;SDS011;2998;48.206;16.394;2023-04-25T17:37:09;2.00;;;1.90;;
5945;SDS011;2998;48.206;16.394;2023-04-25T17:44:08;1.40;;;1.20;;
5945;SDS011;2998;48.206;16.394;2023-04-25T17:46:37;2.67;;;2.10;;
5945;SDS011;2998;48.206;16.394;2023-04-25T17:53:27;9.77;;;6.40;;
5945;SDS011;2998;48.206;16.394;2023-04-25T17:55:56;18.57;;;10.20;;
5945;SDS011;2998;48.206;16.394;2023-04-25T18:02:52;1.90;;;1.57;;
5945;SDS011;2998;48.206;16.394;2023-04-25T18:05:21;5.87;;;2.70;;
5945;SDS011;2998;48.206;16.394;2023-04-25T18:07:51;2.70;;;2.50;;
5945;SDS011;2998;48.206;16.394;2023-04-25T18:10:20;2.17;;;2.07;;
5945;SDS011;2998;48.206;16.394;2023-04-25T18:12:51;1.83;;;1.73;;
5945;SDS011;2998;48.206;16.394;2023-04-25T18:15:21;14.20;;;7.93;;
5945;SDS011;2998;48.206;16.394;2023-04-25T18:17:52;2.87;;;2.77;;
5945;SDS011;2998;48.206;16.394;2023-04-25T18:20:23;2.17;;;2.07;;
5945;SDS011;2998;48.206;16.394;2023-04-25T18:22:53;1.73;;;1.23;;
5945;SDS011;2998;48.206;16.394;2023-04-25T18:25:22;2.10;;;2.00;;
5945;SDS011;2998;48.206;16.394;2023-04-25T18:27:51;2.10;;;1.90;;
5945;SDS011;2998;48.206;16.394;2023-04-25T18:34:28;1.80;;;1.70;;
5945;SDS011;2998;48.206;16.394;2023-04-25T18:36:58;1.90;;;1.80;;
5945;SDS011;2998;48.206;16.394;2023-04-25T18:43:53;3.20;;;3.00;;
5945;SDS011;2998;48.206;16.394;2023-04-25T18:46:24;3.87;;;2.40;;
5945;SDS011;2998;48.206;16.394;2023-04-25T18:53:13;1.50;;;1.40;;
5945;SDS011;2998;48.206;16.394;2023-04-25T18:55:43;2.43;;;1.70;;
5945;SDS011;2998;48.206;16.394;2023-04-25T18:58:12;1.90;;;1.80;;
5945;SDS011;2998;48.206;16.394;2023-04-25T19:00:41;1.90;;;1.80;;
5945;SDS011;2998;48.206;16.394;2023-04-25T19:03:11;2.40;;;2.30;;
5945;SDS011;2998;48.206;16.394;2023-04-25T19:05:41;1.80;;;1.70;;
5945;SDS011;2998;48.206;16.394;2023-04-25T19:08:10;1.90;;;1.80;;
5945;SDS011;2998;48.206;16.394;2023-04-25T19:15:00;2.57;;;2.47;;
5945;SDS011;2998;48.206;16.394;2023-04-25T19:17:29;2.33;;;2.23;;
5945;SDS011;2998;48.206;16.394;2023-04-25T19:24:17;2.63;;;2.53;;
5945;SDS011;2998;48.206;16.394;2023-04-25T19:26:46;4.23;;;3.87;;
5945;SDS011;2998;48.206;16.394;2023-04-25T19:33:36;4.37;;;4.03;;
5945;SDS011;2998;48.206;16.394;2023-04-25T19:40:18;3.77;;;3.50;;
5945;SDS011;2998;48.206;16.394;2023-04-25T19:42:48;4.70;;;3.37;;
5945;SDS011;2998;48.206;16.394;2023-04-25T19:54:15;4.10;;;3.77;;
5945;SDS011;2998;48.206;16.394;2023-04-25T19:56:44;3.33;;;3.13;;
5945;SDS011;2998;48.206;16.394;2023-04-25T19:59:13;4.67;;;4.33;;
5945;SDS011;2998;48.206;16.394;2023-04-25T20:01:42;7.23;;;4.70;;
5945;SDS011;2998;48.206;16.394;2023-04-25T20:04:11;4.50;;;4.20;;
5945;SDS011;2998;48.206;16.394;2023-04-25T20:06:41;4.50;;;4.20;;
5945;SDS011;2998;48.206;16.394;2023-04-25T20:09:10;3.50;;;3.30;;
5945;SDS011;2998;48.206;16.394;2023-04-25T20:11:41;9.30;;;3.47;;
5945;SDS011;2998;48.206;16.394;2023-04-25T20:14:12;3.63;;;3.43;;
5945;SDS011;2998;48.206;16.394;2023-04-25T20:16:41;3.80;;;3.50;;
5945;SDS011;2998;48.206;16.394;2023-04-25T20:19:10;3.83;;;3.63;;
5945;SDS011;2998;48.206;16.394;2023-04-25T20:21:39;3.90;;;3.70;;
5945;SDS011;2998;48.206;16.394;2023-04-25T20:24:09;4.90;;;3.90;;
5945;SDS011;2998;48.206;16.394;2023-04-25T20:26:38;29.07;;;15.90;;
5945;SDS011;2998;48.206;16.394;2023-04-25T20:29:09;31.30;;;16.23;;
5945;SDS011;2998;48.206;16.394;2023-04-25T20:31:38;11.37;;;8.37;;
5945;SDS011;2998;48.206;16.394;2023-04-25T20:34:08;9.47;;;5.60;;
5945;SDS011;2998;48.206;16.394;2023-04-25T20:36:38;11.87;;;8.80;;
5945;SDS011;2998;48.206;16.394;2023-04-25T20:39:08;3.90;;;3.60;;
5945;SDS011;2998;48.206;16.394;2023-04-25T20:45:50;4.70;;;4.40;;
5945;SDS011;2998;48.206;16.394;2023-04-25T20:48:21;5.00;;;4.67;;
5945;SDS011;2998;48.206;16.394;2023-04-25T20:54:56;7.27;;;6.57;;
5945;SDS011;2998;48.206;16.394;2023-04-25T20:57:26;7.97;;;6.90;;
5945;SDS011;2998;48.206;16.394;2023-04-25T21:04:15;8.17;;;6.90;;
5945;SDS011;2998;48.206;16.394;2023-04-25T21:10:57;6.53;;;5.93;;
5945;SDS011;2998;48.206;16.394;2023-04-25T21:13:26;5.57;;;5.07;;
5945;SDS011;2998;48.206;16.394;2023-04-25T21:20:11;4.53;;;4.23;;
5945;SDS011;2998;48.206;16.394;2023-04-25T21:22:43;4.07;;;3.70;;
5945;SDS011;2998;48.206;16.394;2023-04-25T21:29:32;4.37;;;3.97;;
5945;SDS011;2998;48.206;16.394;2023-04-25T21:36:22;37.00;;;17.20;;
5945;SDS011;2998;48.206;16.394;2023-04-25T21:38:51;5.60;;;5.10;;
5945;SDS011;2998;48.206;16.394;2023-04-25T21:44:39;8.03;;;5.17;;
5945;SDS011;2998;48.206;16.394;2023-04-25T21:55:59;6.77;;;6.17;;
5945;SDS011;2998;48.206;16.394;2023-04-25T21:58:29;6.70;;;6.10;;
5945;SDS011;2998;48.206;16.394;2023-04-25T22:05:17;6.97;;;6.37;;
5945;SDS011;2998;48.206;16.394;2023-04-25T22:07:48;7.40;;;6.60;;
5945;SDS011;2998;48.206;16.394;2023-04-25T22:10:19;7.53;;;6.73;;
5945;SDS011;2998;48.206;16.394;2023-04-25T22:17:06;4.87;;;4.47;;
5945;SDS011;2998;48.206;16.394;2023-04-25T22:19:35;5.47;;;5.03;;
5945;SDS011;2998;48.206;16.394;2023-04-25T22:26:16;5.60;;;5.10;;
5945;SDS011;2998;48.206;16.394;2023-04-25T22:28:46;5.00;;;4.70;;
5945;SDS011;2998;48.206;16.394;2023-04-25T22:35:32;5.00;;;4.70;;
5945;SDS011;2998;48.206;16.394;2023-04-25T22:42:20;5.53;;;5.00;;
5945;SDS011;2998;48.206;16.394;2023-04-25T22:44:50;6.20;;;5.70;;
5945;SDS011;2998;48.206;16.394;2023-04-25T22:56:05;6.50;;;5.77;;
5945;SDS011;2998;48.206;16.394;2023-04-25T22:58:35;5.90;;;5.30;;
5945;SDS011;2998;48.206;16.394;2023-04-25T23:01:05;5.53;;;5.23;;
5945;SDS011;2998;48.206;16.394;2023-04-25T23:03:35;7.83;;;5.77;;
5945;SDS011;2998;48.206;16.394;2023-04-25T23:06:06;7.60;;;6.90;;
5945;SDS011;2998;48.206;16.394;2023-04-25T23:08:35;6.87;;;6.17;;
5945;SDS011;2998;48.206;16.394;2023-04-25T23:11:07;7.70;;;6.97;;
5945;SDS011;2998;48.206;16.394;2023-04-25T23:13:36;6.70;;;6.23;;
5945;SDS011;2998;48.206;16.394;2023-04-25T23:16:11;7.00;;;6.50;;
5945;SDS011;2998;48.206;16.394;2023-04-25T23:18:42;7.90;;;7.17;;
5945;SDS011;2998;48.206;16.394;2023-04-25T23:21:10;7.87;;;7.10;;